Time;durP1;ratioP1;P1;durP2;ratioP2;P2;SDS_P1;SDS_P2;PMS_P1;PMS_P2;Temp;Humidity;BMP_temperature;BMP_pressure;BME280_temperature;BME280_humidity;BME280_pressure;Samples;Min_cycle;Max_cycle;Signal;HPM_P1;HPM_P2
2022/08/12 00:44:21;;;;;;;6.47;4.35;;;19.60;99.90;;;;;;4987579;28;20058;-68
2022/08/12 00:46:53;;;;;;;8.18;5.25;;;19.50;99.90;;;;;;4982906;28;20050;-67
2022/08/12 00:49:22;;;;;;;8.40;4.93;;;19.40;99.90;;;;;;4991801;28;20072;-67
2022/08/12 00:52:06;;;;;;;6.40;4.50;;;19.40;99.90;;;;;;4977743;28;20042;-66
2022/08/12 00:54:50;;;;;;;9.55;5.35;;;19.30;99.90;;;;;;4984821;28;20555;-66
2022/08/12 00:57:30;;;;;;;11.77;5.60;;;19.30;99.90;;;;;;4992235;28;20092;-66
2022/08/12 00:59:59;;;;;;;6.35;5.07;;;19.30;99.90;;;;;;4976822;28;20042;-67
2022/08/12 01:02:39;;;;;;;6.80;5.60;;;19.20;99.90;;;;;;4993762;28;20072;-66
2022/08/12 01:13:27;;;;;;;8.95;6.38;;;19.20;99.90;;;;;;4993461;28;20062;-69
2022/08/12 01:16:01;;;;;;;6.82;5.65;;;19.10;99.90;;;;;;4983427;28;20050;-64
2022/08/12 01:18:33;;;;;;;7.57;5.63;;;19.20;99.90;;;;;;4991561;28;20050;-68
2022/08/12 01:21:10;;;;;;;8.90;6.05;;;19.10;99.90;;;;;;4991562;28;20134;-68
2022/08/12 01:23:48;;;;;;;6.95;5.38;;;19.10;99.90;;;;;;5009358;28;20085;-66
2022/08/12 01:26:22;;;;;;;6.95;6.05;;;19.00;99.90;;;;;;4992531;28;20050;-68
2022/08/12 01:28:51;;;;;;;8.07;5.40;;;19.00;99.90;;;;;;4988728;28;20062;-66
2022/08/12 01:31:18;;;;;;;10.23;5.97;;;19.00;99.90;;;;;;5007336;28;20054;-66
2022/08/12 01:34:06;;;;;;;9.77;5.82;;;19.00;99.90;;;;;;4999730;28;20116;-66
2022/08/12 01:37:01;;;;;;;7.13;5.40;;;19.00;99.90;;;;;;4995632;28;20053;-66
2022/08/12 01:39:48;;;;;;;6.15;5.30;;;18.90;99.90;;;;;;4987215;28;20054;-69
2022/08/12 01:42:19;;;;;;;9.20;5.80;;;18.90;99.90;;;;;;4991662;28;20042;-66
2022/08/12 01:44:47;;;;;;;9.60;5.93;;;18.90;99.90;;;;;;4992037;28;20448;-67
2022/08/12 01:47:44;;;;;;;9.05;6.38;;;18.90;99.90;;;;;;4989242;28;20520;-66
2022/08/12 01:50:23;;;;;;;7.00;5.70;;;18.80;99.90;;;;;;4989945;28;20050;-68
2022/08/12 01:52:52;;;;;;;8.70;6.20;;;18.70;99.90;;;;;;4974576;28;20398;-66
2022/08/12 01:55:27;;;;;;;10.48;7.00;;;18.70;99.90;;;;;;4990310;28;20145;-68
2022/08/12 01:59:45;;;;;;;8.93;6.35;;;18.60;99.90;;;;;;5017199;28;20038;-66
2022/08/12 02:01:23;;;;;;;7.47;6.43;;;18.50;99.90;;;;;;5020629;28;20080;-66
2022/08/12 02:13:21;;;;;;;11.73;7.60;;;18.20;99.90;;;;;;4980611;28;20050;-66
2022/08/12 02:15:58;;;;;;;10.10;7.20;;;18.20;99.90;;;;;;4983711;28;20080;-66
2022/08/12 02:18:40;;;;;;;10.35;7.15;;;18.10;99.90;;;;;;4980552;28;20043;-66
2022/08/12 02:21:19;;;;;;;9.18;7.55;;;18.10;99.90;;;;;;4978991;28;20050;-66
2022/08/12 02:23:46;;;;;;;10.82;7.53;;;18.00;99.90;;;;;;4984386;28;20057;-66
2022/08/12 02:26:15;;;;;;;8.88;7.60;;;18.00;99.90;;;;;;4978099;28;20042;-66
2022/08/12 02:28:42;;;;;;;9.07;7.55;;;17.90;99.90;;;;;;4983144;28;20124;-66
2022/08/12 02:31:08;;;;;;;11.30;7.85;;;17.90;99.90;;;;;;4985758;28;20536;-66
2022/08/12 02:33:36;;;;;;;9.32;7.57;;;17.90;99.90;;;;;;4984540;28;20504;-66
2022/08/12 02:36:03;;;;;;;11.80;7.63;;;17.90;99.90;;;;;;4999407;28;20069;-68
2022/08/12 02:38:30;;;;;;;10.27;7.18;;;17.80;99.90;;;;;;4971667;28;20296;-68
2022/08/12 02:40:58;;;;;;;9.55;7.65;;;17.80;99.90;;;;;;4971709;28;20477;-65
2022/08/12 02:43:30;;;;;;;9.43;7.45;;;18.10;99.90;;;;;;4974661;28;20092;-66
2022/08/12 02:46:11;;;;;;;10.10;7.28;;;17.80;99.90;;;;;;4989761;28;20050;-65
2022/08/12 02:49:09;;;;;;;9.43;7.10;;;17.80;99.90;;;;;;4970808;28;21628;-66
2022/08/12 02:51:40;;;;;;;10.52;7.88;;;17.80;99.90;;;;;;4974106;28;20042;-66
2022/08/12 02:54:07;;;;;;;10.65;8.10;;;17.70;99.90;;;;;;4978121;28;20061;-66
2022/08/12 02:56:36;;;;;;;14.05;7.60;;;17.70;99.90;;;;;;4982266;28;20105;-67
2022/08/12 02:59:03;;;;;;;11.15;7.28;;;17.70;99.90;;;;;;4983307;28;20050;-67
2022/08/12 03:01:32;;;;;;;9.75;7.40;;;17.60;99.90;;;;;;4984717;28;20065;-66
2022/08/12 03:04:06;;;;;;;10.30;7.03;;;17.60;99.90;;;;;;4965746;28;20053;-67
2022/08/12 03:06:44;;;;;;;10.35;7.40;;;17.50;99.90;;;;;;4966549;28;20046;-67
2022/08/12 03:09:13;;;;;;;9.15;8.00;;;17.50;99.90;;;;;;4959763;28;20046;-66
2022/08/12 03:11:46;;;;;;;11.00;7.40;;;17.50;99.90;;;;;;4982699;28;20044;-66
2022/08/12 03:14:14;;;;;;;11.68;8.07;;;17.40;99.90;;;;;;4978073;28;20058;-66
2022/08/12 03:16:40;;;;;;;10.02;7.90;;;17.40;99.90;;;;;;4982989;28;20497;-66
2022/08/12 03:19:07;;;;;;;11.48;7.80;;;17.40;99.90;;;;;;4985287;28;20047;-66
2022/08/12 03:21:36;;;;;;;10.82;7.60;;;17.40;99.90;;;;;;4973301;28;20356;-67
2022/08/12 03:24:04;;;;;;;12.02;7.80;;;17.30;99.90;;;;;;4986658;28;20038;-66
2022/08/12 03:26:34;;;;;;;10.93;7.78;;;17.30;99.90;;;;;;4982640;28;20046;-66
2022/08/12 03:29:05;;;;;;;9.95;7.68;;;17.30;99.90;;;;;;4985936;28;20065;-66
2022/08/12 03:31:32;;;;;;;9.02;7.10;;;17.30;99.90;;;;;;4983734;28;20043;-66
2022/08/12 03:34:11;;;;;;;11.20;7.30;;;17.20;99.90;;;;;;4982517;28;20042;-67
2022/08/12 03:36:39;;;;;;;11.18;7.13;;;17.20;99.90;;;;;;4970725;28;20117;-66
2022/08/12 03:42:15;;;;;;;12.32;7.30;;;17.20;99.90;;;;;;4987630;28;20504;-66
2022/08/12 04:01:51;;;;;;;12.15;7.47;;;17.00;99.90;;;;;;5004075;28;20073;-68
2022/08/12 04:04:22;;;;;;;8.48;6.75;;;16.90;99.90;;;;;;5003356;28;20051;-67
2022/08/12 04:06:49;;;;;;;9.57;7.05;;;16.90;99.90;;;;;;4979790;28;20401;-66
2022/08/12 04:09:20;;;;;;;8.48;7.05;;;16.90;99.90;;;;;;4985956;28;20132;-66
2022/08/12 04:14:31;;;;;;;10.10;6.75;;;16.80;99.90;;;;;;5000834;28;20188;-68
2022/08/12 04:16:57;;;;;;;10.32;6.70;;;16.80;99.90;;;;;;4987204;28;20443;-70
2022/08/12 04:19:24;;;;;;;9.57;6.47;;;16.80;99.90;;;;;;4959533;28;20526;-66
2022/08/12 04:21:51;;;;;;;8.70;6.30;;;16.80;99.90;;;;;;4972942;28;20046;-67
2022/08/12 04:24:19;;;;;;;8.27;6.22;;;16.70;99.90;;;;;;4970714;28;20132;-66
2022/08/12 04:26:45;;;;;;;10.70;7.03;;;16.70;99.90;;;;;;4990406;28;20046;-66
2022/08/12 04:29:11;;;;;;;6.65;5.60;;;16.70;99.90;;;;;;4985408;28;20086;-66
2022/08/12 04:31:40;;;;;;;11.23;6.43;;;16.70;99.90;;;;;;4983009;28;20400;-67
2022/08/12 04:34:07;;;;;;;8.52;7.07;;;16.60;99.90;;;;;;4989407;28;20054;-65
2022/08/12 04:36:39;;;;;;;9.82;6.75;;;16.60;99.90;;;;;;4974026;28;20132;-69
2022/08/12 04:39:07;;;;;;;10.27;7.05;;;16.70;99.90;;;;;;4976541;28;20408;-68
2022/08/12 04:41:36;;;;;;;11.63;7.32;;;16.70;99.90;;;;;;4980449;28;20054;-66
2022/08/12 04:44:03;;;;;;;11.98;7.47;;;16.70;99.90;;;;;;4989715;28;20042;-66
2022/08/12 04:46:29;;;;;;;9.45;6.75;;;16.80;99.90;;;;;;4969463;28;20101;-66
2022/08/12 04:48:56;;;;;;;12.48;7.07;;;16.80;99.90;;;;;;4982123;28;20046;-68
2022/08/12 04:51:23;;;;;;;9.05;6.78;;;16.80;99.90;;;;;;4971131;28;20093;-68
2022/08/12 04:53:50;;;;;;;7.78;6.18;;;16.90;99.90;;;;;;4971608;28;20165;-69
2022/08/12 04:56:17;;;;;;;10.60;6.88;;;17.00;99.90;;;;;;4987053;28;20109;-69
2022/08/12 04:58:44;;;;;;;9.38;6.60;;;17.00;99.90;;;;;;4972599;28;20051;-71
2022/08/12 05:01:11;;;;;;;7.65;5.60;;;17.10;99.90;;;;;;4984024;28;20054;-68
2022/08/12 05:03:38;;;;;;;8.15;5.93;;;17.20;99.90;;;;;;4969298;28;20081;-70
2022/08/12 05:06:05;;;;;;;8.73;5.47;;;17.30;99.90;;;;;;4985408;28;20053;-71
2022/08/12 05:08:32;;;;;;;8.40;5.55;;;17.30;99.90;;;;;;4977446;28;20441;-69
2022/08/12 05:10:58;;;;;;;7.90;4.95;;;17.40;99.90;;;;;;4977322;28;20042;-68
2022/08/12 05:13:39;;;;;;;9.07;5.32;;;17.60;99.90;;;;;;4985604;28;20144;-70
2022/08/12 05:16:06;;;;;;;8.07;5.38;;;17.70;99.90;;;;;;4964236;28;20050;-73
2022/08/12 05:18:34;;;;;;;6.53;5.10;;;17.80;99.90;;;;;;4995664;28;20073;-69
2022/08/12 05:21:00;;;;;;;5.05;4.53;;;17.80;99.90;;;;;;4992155;28;20173;-70
2022/08/12 05:23:30;;;;;;;6.05;4.82;;;18.00;99.90;;;;;;4989333;28;20050;-69
2022/08/12 05:25:56;;;;;;;8.07;4.97;;;18.10;99.90;;;;;;4991150;28;20053;-70
2022/08/12 05:28:23;;;;;;;8.68;4.38;;;18.20;99.90;;;;;;4976388;28;20054;-69
2022/08/12 05:30:50;;;;;;;7.18;4.45;;;18.30;99.90;;;;;;4972734;28;20108;-71
2022/08/12 05:33:16;;;;;;;6.47;4.47;;;18.50;99.90;;;;;;4977235;28;20172;-69
2022/08/12 05:35:46;;;;;;;6.55;4.57;;;18.60;99.90;;;;;;4970532;28;20513;-69
2022/08/12 05:41:02;;;;;;;6.55;4.13;;;18.70;99.90;;;;;;4986054;28;20038;-69
2022/08/12 05:43:28;;;;;;;7.43;4.50;;;18.90;99.90;;;;;;4972702;28;20051;-69
2022/08/12 05:45:55;;;;;;;9.15;4.53;;;19.00;99.90;;;;;;4987714;28;20050;-69
2022/08/12 05:48:21;;;;;;;10.00;4.30;;;19.10;99.90;;;;;;4976040;28;20489;-69
2022/08/12 05:50:47;;;;;;;7.43;4.25;;;19.20;99.90;;;;;;4982586;28;20129;-69
2022/08/12 05:53:14;;;;;;;7.03;4.05;;;19.20;99.90;;;;;;4974136;28;20050;-69
2022/08/12 05:55:40;;;;;;;5.25;4.38;;;19.40;99.90;;;;;;4980375;28;20121;-71
2022/08/12 05:58:06;;;;;;;8.32;4.22;;;19.50;99.90;;;;;;4971249;28;20058;-69
2022/08/12 06:00:34;;;;;;;7.47;4.20;;;19.60;99.90;;;;;;4984575;28;20450;-72
2022/08/12 06:03:04;;;;;;;5.95;4.00;;;19.70;99.90;;;;;;4972576;28;20042;-72
2022/08/12 06:05:37;;;;;;;7.38;4.13;;;19.80;99.90;;;;;;4983591;28;20055;-68
2022/08/12 06:08:06;;;;;;;6.20;3.97;;;19.90;99.90;;;;;;4976645;28;20570;-69
2022/08/12 06:10:33;;;;;;;5.65;3.78;;;20.00;99.90;;;;;;4979816;28;20560;-66
2022/08/12 06:13:05;;;;;;;5.47;3.65;;;20.10;99.90;;;;;;4968229;28;20049;-70
2022/08/12 06:15:32;;;;;;;;;;;20.20;99.90;;;;;;4980017;28;20085;-67
2022/08/12 06:18:09;;;;;;;4.30;3.90;;;20.30;99.90;;;;;;5024652;28;20280;-66
2022/08/12 06:20:37;;;;;;;8.23;4.32;;;20.40;99.90;;;;;;4973395;28;20050;-71
2022/08/12 06:23:04;;;;;;;5.88;3.83;;;20.50;99.90;;;;;;4979544;28;20390;-66
2022/08/12 06:25:33;;;;;;;6.15;4.22;;;20.60;99.90;;;;;;4984394;28;20038;-67
2022/08/12 06:28:02;;;;;;;5.72;3.75;;;20.70;99.90;;;;;;4967804;28;20073;-69
2022/08/12 06:30:29;;;;;;;7.70;3.85;;;20.80;99.90;;;;;;4983806;28;20042;-67
2022/08/12 06:32:55;;;;;;;6.93;4.38;;;20.90;99.90;;;;;;4969660;28;20086;-66
2022/08/12 06:35:21;;;;;;;6.00;4.45;;;21.00;99.90;;;;;;4971496;28;20049;-66
2022/08/12 06:37:49;;;;;;;5.82;4.15;;;21.00;99.90;;;;;;4971421;28;20062;-66
2022/08/12 06:42:46;;;;;;;6.22;4.30;;;21.10;99.90;;;;;;4977765;28;20042;-69
2022/08/12 06:43:02;;;;;;;6.85;4.25;;;21.20;99.90;;;;;;4964726;28;20453;-66
2022/08/12 06:45:28;;;;;;;6.78;4.15;;;21.30;99.90;;;;;;4984574;28;20590;-66
2022/08/12 06:47:55;;;;;;;5.70;4.57;;;21.30;99.90;;;;;;4988758;28;20046;-66
2022/08/12 06:50:21;;;;;;;5.82;4.20;;;21.40;99.90;;;;;;4977462;28;20050;-67
2022/08/12 06:52:47;;;;;;;5.88;4.10;;;21.50;99.90;;;;;;4993680;28;20464;-67
2022/08/12 06:55:19;;;;;;;5.32;3.78;;;21.60;99.90;;;;;;4991863;28;20133;-66
2022/08/12 06:58:04;;;;;;;9.13;4.28;;;21.80;99.90;;;;;;4975682;28;20488;-66
2022/08/12 07:00:33;;;;;;;6.65;4.10;;;21.90;99.90;;;;;;4991162;28;20042;-66
2022/08/12 07:03:00;;;;;;;7.82;4.20;;;22.00;99.90;;;;;;4974118;28;20046;-66
2022/08/12 07:05:27;;;;;;;4.88;4.20;;;22.10;99.90;;;;;;4991274;28;20062;-68
2022/08/12 07:08:01;;;;;;;6.80;4.38;;;22.20;99.90;;;;;;4990313;28;20049;-66
2022/08/12 07:10:31;;;;;;;6.85;4.25;;;22.20;99.90;;;;;;4990192;28;20069;-68
2022/08/12 07:13:00;;;;;;;8.93;4.25;;;22.30;99.90;;;;;;4974387;28;20054;-68
2022/08/12 07:15:29;;;;;;;7.07;4.65;;;22.40;99.90;;;;;;4990436;28;20089;-66
2022/08/12 07:20:30;;;;;;;6.03;4.72;;;22.60;99.90;;;;;;4989102;28;20053;-69
2022/08/12 07:22:57;;;;;;;9.48;3.97;;;22.70;99.90;;;;;;4985488;28;20137;-67
2022/08/12 07:25:29;;;;;;;6.25;4.00;;;22.70;99.90;;;;;;4986758;28;20054;-68
2022/08/12 07:28:00;;;;;;;5.95;4.18;;;22.80;99.90;;;;;;4990739;28;20069;-68
2022/08/12 07:30:26;;;;;;;6.20;4.20;;;22.90;99.90;;;;;;4991175;28;20374;-68
2022/08/12 07:32:53;;;;;;;7.43;4.32;;;23.00;99.90;;;;;;5000344;28;20379;-67
2022/08/12 07:35:20;;;;;;;7.82;4.30;;;23.20;99.90;;;;;;4983775;28;20074;-68
2022/08/12 07:37:49;;;;;;;5.97;4.18;;;23.30;99.90;;;;;;4990852;28;20050;-68
2022/08/12 07:40:17;;;;;;;4.75;3.75;;;23.40;99.90;;;;;;4964185;28;20524;-68
2022/08/12 07:42:44;;;;;;;10.45;4.35;;;23.50;99.90;;;;;;4997814;28;20060;-68
2022/08/12 07:45:11;;;;;;;5.97;4.35;;;23.60;99.90;;;;;;4997277;28;20461;-71
2022/08/12 07:47:42;;;;;;;9.07;4.70;;;23.60;99.90;;;;;;4990654;28;20493;-70
2022/08/12 07:50:13;;;;;;;7.15;4.30;;;23.70;99.90;;;;;;4986544;28;20072;-71
2022/08/12 07:52:42;;;;;;;5.32;4.05;;;23.90;99.90;;;;;;4974088;28;20083;-70
2022/08/12 07:55:09;;;;;;;6.20;4.45;;;24.00;99.90;;;;;;4991166;28;20049;-70
2022/08/12 07:57:52;;;;;;;6.22;4.40;;;24.10;99.90;;;;;;4984464;28;20437;-71
2022/08/12 08:00:18;;;;;;;7.05;4.53;;;24.30;99.90;;;;;;4986726;28;20484;-70
2022/08/12 08:02:44;;;;;;;6.50;4.28;;;24.40;99.90;;;;;;4984707;28;20046;-71
2022/08/12 08:05:11;;;;;;;5.68;4.18;;;24.40;99.90;;;;;;5003294;28;20440;-71
2022/08/12 08:07:37;;;;;;;8.88;3.92;;;24.60;99.90;;;;;;4987156;28;20097;-71
2022/08/12 08:10:09;;;;;;;4.95;4.30;;;24.70;99.90;;;;;;4987868;28;20063;-71
2022/08/12 08:12:57;;;;;;;5.32;4.00;;;24.80;99.90;;;;;;4969867;28;20042;-70
2022/08/12 08:15:34;;;;;;;7.75;3.88;;;24.90;99.90;;;;;;4986806;28;20052;-70
2022/08/12 08:18:06;;;;;;;4.95;3.60;;;25.00;99.90;;;;;;4978175;28;20047;-71
2022/08/12 08:20:38;;;;;;;7.28;3.60;;;25.20;99.90;;;;;;4985720;28;20049;-70
2022/08/12 08:23:10;;;;;;;4.88;3.47;;;25.20;99.90;;;;;;4987855;28;20185;-70
2022/08/12 08:25:38;;;;;;;5.65;3.72;;;25.30;99.90;;;;;;4987687;28;20484;-71
2022/08/12 08:28:10;;;;;;;7.13;3.40;;;25.50;99.90;;;;;;4973155;28;20057;-72
2022/08/12 08:30:42;;;;;;;7.72;3.67;;;25.60;99.90;;;;;;4991994;28;20046;-70
2022/08/12 08:33:11;;;;;;;5.63;3.45;;;25.80;99.90;;;;;;4994803;28;20069;-72
2022/08/12 08:35:38;;;;;;;7.10;3.70;;;25.90;99.90;;;;;;4987504;28;20050;-70
2022/08/12 08:38:13;;;;;;;7.55;3.40;;;25.90;99.90;;;;;;4992668;28;20041;-72
2022/08/12 08:43:31;;;;;;;7.43;3.25;;;26.20;99.90;;;;;;4994353;28;20192;-70
2022/08/12 08:46:04;;;;;;;6.40;3.70;;;26.40;99.90;;;;;;4977160;28;20070;-70
2022/08/12 08:48:32;;;;;;;4.15;3.13;;;26.50;99.90;;;;;;4995317;28;20153;-71
2022/08/12 08:50:59;;;;;;;4.85;3.50;;;26.60;99.90;;;;;;4991684;28;20061;-71
2022/08/12 08:53:25;;;;;;;4.03;3.08;;;26.80;99.90;;;;;;4994208;28;20050;-70
2022/08/12 08:55:54;;;;;;;7.82;3.47;;;26.90;99.90;;;;;;4993182;28;20046;-71
2022/08/12 08:58:20;;;;;;;5.07;3.25;;;27.10;99.90;;;;;;4977852;28;20058;-71
2022/08/12 09:00:50;;;;;;;6.72;3.47;;;27.10;99.80;;;;;;5009951;28;20091;-70
2022/08/12 09:03:16;;;;;;;4.78;3.03;;;27.20;99.00;;;;;;5025425;28;20054;-73
2022/08/12 09:05:43;;;;;;;6.90;3.63;;;27.40;98.60;;;;;;4975410;28;20042;-72
2022/08/12 09:08:09;;;;;;;6.03;3.60;;;27.60;97.90;;;;;;4993455;28;20512;-70
2022/08/12 09:10:37;;;;;;;5.28;3.20;;;27.80;97.10;;;;;;4977073;28;20105;-71
2022/08/12 09:15:50;;;;;;;8.98;3.35;;;28.10;94.80;;;;;;5002527;28;20058;-70
2022/08/12 09:18:17;;;;;;;6.72;3.63;;;28.20;93.80;;;;;;5004987;28;20112;-70
2022/08/12 09:20:43;;;;;;;7.13;3.30;;;28.20;92.70;;;;;;4977373;28;20042;-70
2022/08/12 09:23:11;;;;;;;8.88;3.40;;;28.50;91.50;;;;;;4993629;28;20057;-70
2022/08/12 09:25:42;;;;;;;5.05;3.15;;;28.60;90.90;;;;;;4993083;28;20106;-73
2022/08/12 09:28:09;;;;;;;5.82;3.58;;;28.70;87.00;;;;;;4993318;28;20485;-71
2022/08/12 09:30:40;;;;;;;10.55;3.65;;;28.80;88.10;;;;;;4999367;28;20042;-72
2022/08/12 09:33:06;;;;;;;8.50;3.45;;;28.90;85.40;;;;;;4996969;28;20100;-69
2022/08/12 09:35:32;;;;;;;8.43;3.50;;;29.00;83.10;;;;;;4992789;28;20042;-69
2022/08/12 09:38:01;;;;;;;7.43;3.45;;;29.10;81.20;;;;;;4976166;28;20050;-71
2022/08/12 09:40:28;;;;;;;6.20;3.35;;;29.30;80.60;;;;;;4976647;28;20112;-74
2022/08/12 09:45:45;;;;;;;6.10;3.30;;;29.60;78.80;;;;;;5020882;28;20134;-69
2022/08/12 09:48:15;;;;;;;7.35;3.05;;;29.60;76.00;;;;;;4992898;28;20070;-69
2022/08/12 09:50:46;;;;;;;6.75;3.20;;;29.80;74.00;;;;;;4968960;28;20567;-69
2022/08/12 09:53:23;;;;;;;4.53;2.97;;;29.90;72.90;;;;;;5000903;28;20046;-70
2022/08/12 09:55:54;;;;;;;3.58;3.15;;;30.00;69.70;;;;;;4997924;28;20054;-70
2022/08/12 09:58:28;;;;;;;4.47;3.08;;;30.10;69.50;;;;;;4990640;28;20120;-71
2022/08/12 10:01:03;;;;;;;7.57;2.97;;;30.30;67.90;;;;;;4975226;28;20053;-70
2022/08/12 10:03:35;;;;;;;3.75;2.90;;;30.40;64.90;;;;;;5001237;28;20078;-71
2022/08/12 10:06:04;;;;;;;4.85;2.97;;;30.50;64.70;;;;;;4994204;28;20082;-73
2022/08/12 10:08:30;;;;;;;5.65;3.00;;;30.60;63.50;;;;;;4992661;28;20053;-75
2022/08/12 10:13:43;;;;;;;4.07;3.05;;;30.80;60.30;;;;;;4996289;28;20330;-69
2022/08/12 10:16:17;;;;;;;4.45;3.00;;;30.80;60.60;;;;;;4985301;28;20051;-71
2022/08/12 10:18:46;;;;;;;3.33;3.03;;;30.90;59.50;;;;;;4977040;28;20148;-69
2022/08/12 10:21:43;;;;;;;3.83;2.92;;;31.00;58.20;;;;;;4990719;28;20128;-72
2022/08/12 10:24:20;;;;;;;3.55;3.17;;;31.10;53.30;;;;;;4975915;28;20124;-70
2022/08/12 10:29:46;;;;;;;3.47;2.97;;;31.20;55.80;;;;;;4989304;28;20054;-71
2022/08/12 10:32:20;;;;;;;3.72;3.10;;;31.30;55.30;;;;;;5000842;28;20141;-70
2022/08/12 10:34:47;;;;;;;5.28;2.78;;;31.50;54.70;;;;;;4991144;28;20038;-71
2022/08/12 10:37:13;;;;;;;6.10;2.83;;;31.70;54.70;;;;;;4989865;28;20064;-69
2022/08/12 10:39:40;;;;;;;4.10;2.60;;;31.70;53.60;;;;;;4994460;28;20046;-69
2022/08/12 10:44:59;;;;;;;4.18;2.58;;;31.70;52.30;;;;;;4989314;28;20061;-69
2022/08/12 10:47:34;;;;;;;4.38;2.88;;;31.80;52.40;;;;;;4994017;28;20485;-69
2022/08/12 10:50:00;;;;;;;4.15;2.65;;;31.90;52.40;;;;;;4981009;28;20058;-71
2022/08/12 10:52:29;;;;;;;5.88;2.88;;;32.00;52.20;;;;;;4991410;28;20052;-69
2022/08/12 10:54:56;;;;;;;3.83;2.72;;;32.10;51.50;;;;;;4974107;28;20053;-71
2022/08/12 10:57:26;;;;;;;4.63;2.50;;;32.30;51.00;;;;;;4991016;28;20073;-72
2022/08/12 10:59:58;;;;;;;3.63;2.58;;;32.20;50.20;;;;;;4978595;28;20046;-70
2022/08/12 11:02:26;;;;;;;6.47;3.00;;;32.40;49.40;;;;;;4974179;28;20138;-69
2022/08/12 11:04:58;;;;;;;3.40;2.70;;;32.30;49.90;;;;;;4974920;28;20512;-69
2022/08/12 11:07:25;;;;;;;2.88;2.67;;;32.40;49.40;;;;;;4991062;28;20511;-70
2022/08/12 11:09:52;;;;;;;3.60;2.45;;;32.40;49.30;;;;;;4997565;28;20046;-72
2022/08/12 11:12:18;;;;;;;3.33;2.35;;;32.50;49.00;;;;;;4996697;28;20057;-69
2022/08/12 11:14:44;;;;;;;3.00;2.30;;;32.60;47.50;;;;;;4996516;28;20053;-71
2022/08/12 11:17:12;;;;;;;3.90;2.42;;;32.60;47.40;;;;;;4992004;28;20046;-69
2022/08/12 11:19:40;;;;;;;5.05;2.17;;;32.70;47.20;;;;;;4973429;28;20081;-71
2022/08/12 11:22:07;;;;;;;3.35;2.55;;;32.90;48.00;;;;;;5017466;28;20042;-68
2022/08/12 11:24:34;;;;;;;6.18;2.70;;;32.90;47.40;;;;;;4990496;28;20050;-68
2022/08/12 11:27:02;;;;;;;2.63;2.42;;;32.90;46.90;;;;;;4972827;28;20489;-69
2022/08/12 11:29:29;;;;;;;4.53;2.75;;;32.80;45.90;;;;;;4991130;28;20042;-68
2022/08/12 11:31:55;;;;;;;2.45;2.30;;;32.80;46.40;;;;;;4992782;28;20065;-70
2022/08/12 11:34:22;;;;;;;2.72;2.50;;;33.00;46.40;;;;;;4991085;28;20050;-68
2022/08/12 11:36:56;;;;;;;4.30;2.47;;;33.10;46.40;;;;;;4990557;28;20521;-68
2022/08/12 11:39:23;;;;;;;5.13;2.38;;;33.20;44.50;;;;;;4990401;28;20404;-69
2022/08/12 11:41:50;;;;;;;2.67;2.15;;;33.20;45.30;;;;;;4990458;28;20054;-68
2022/08/12 11:44:16;;;;;;;3.35;2.30;;;33.20;44.80;;;;;;4974566;28;20404;-68
2022/08/12 11:46:43;;;;;;;3.83;2.20;;;33.40;45.10;;;;;;4990679;28;20113;-68
2022/08/12 11:49:10;;;;;;;7.18;2.40;;;33.30;45.40;;;;;;5007120;28;20057;-69
2022/08/12 11:51:37;;;;;;;3.55;2.10;;;33.40;45.40;;;;;;4990900;28;20050;-69
2022/08/12 11:54:04;;;;;;;3.03;2.20;;;33.60;44.90;;;;;;4994757;28;20049;-68
2022/08/12 11:56:30;;;;;;;1.98;1.88;;;33.70;44.20;;;;;;4996088;28;20051;-71
2022/08/12 11:58:57;;;;;;;3.92;2.08;;;33.80;44.40;;;;;;4990264;28;20479;-70
2022/08/12 12:01:23;;;;;;;2.75;2.22;;;33.90;44.40;;;;;;4991807;28;20051;-68
2022/08/12 12:03:49;;;;;;;2.40;2.10;;;33.90;44.00;;;;;;4996386;28;20112;-68
2022/08/12 12:06:16;;;;;;;5.00;1.90;;;33.90;44.10;;;;;;4999656;28;20117;-69
2022/08/12 12:08:43;;;;;;;9.55;2.80;;;33.90;43.80;;;;;;4977792;28;20081;-68
2022/08/12 12:11:09;;;;;;;4.75;2.00;;;33.90;44.30;;;;;;4994920;28;20080;-68
2022/08/12 12:13:35;;;;;;;6.65;2.47;;;33.80;44.00;;;;;;4995119;28;20136;-68
2022/08/12 12:16:01;;;;;;;5.22;2.33;;;33.70;44.50;;;;;;4999620;28;20516;-69
2022/08/12 12:18:29;;;;;;;5.07;2.22;;;34.20;44.30;;;;;;4998823;28;20046;-72
2022/08/12 12:20:57;;;;;;;4.00;2.38;;;34.60;43.40;;;;;;4977059;28;20050;-69
2022/08/12 12:23:24;;;;;;;3.50;2.20;;;34.70;43.00;;;;;;4991145;28;20466;-70
2022/08/12 12:25:50;;;;;;;2.65;2.20;;;34.90;43.00;;;;;;4993494;28;20046;-68
2022/08/12 12:28:17;;;;;;;2.85;2.13;;;35.30;42.60;;;;;;4990603;28;20057;-69
2022/08/12 12:30:43;;;;;;;2.63;2.00;;;35.60;42.00;;;;;;4974960;28;20500;-68
2022/08/12 12:33:10;;;;;;;2.60;2.40;;;35.40;42.10;;;;;;4993636;28;20042;-68
2022/08/12 12:35:37;;;;;;;3.30;2.20;;;35.60;41.30;;;;;;4991471;28;20077;-69
2022/08/12 12:38:08;;;;;;;3.97;2.30;;;36.00;41.40;;;;;;5003670;28;20050;-70
2022/08/12 12:40:36;;;;;;;2.50;2.30;;;36.10;40.80;;;;;;4990983;28;20522;-69
2022/08/12 12:43:02;;;;;;;2.47;2.28;;;36.30;40.70;;;;;;4994209;28;20054;-68
2022/08/12 12:45:32;;;;;;;3.22;2.30;;;36.20;40.50;;;;;;4993408;28;20050;-68
2022/08/12 12:47:59;;;;;;;2.97;1.90;;;36.50;40.60;;;;;;4982092;28;20078;-70
2022/08/12 12:50:39;;;;;;;4.18;2.10;;;36.70;40.40;;;;;;4975088;28;20344;-69
2022/08/12 12:53:06;;;;;;;3.90;2.28;;;37.10;40.00;;;;;;4977433;28;20493;-68
2022/08/12 12:55:36;;;;;;;3.35;2.70;;;37.30;39.70;;;;;;4979330;28;20045;-69
2022/08/12 12:58:10;;;;;;;3.22;2.30;;;37.60;39.70;;;;;;4976919;28;20110;-69
2022/08/12 13:00:40;;;;;;;2.80;2.50;;;37.70;39.40;;;;;;4991131;28;20081;-71
2022/08/12 13:03:05;;;;;;;5.20;2.28;;;38.00;39.40;;;;;;4993204;28;20042;-69
2022/08/12 13:05:37;;;;;;;5.20;2.20;;;38.20;38.80;;;;;;4992668;28;20055;-69
2022/08/12 13:08:18;;;;;;;3.85;2.40;;;38.30;38.10;;;;;;5021252;28;20050;-69
2022/08/12 13:10:44;;;;;;;4.78;2.42;;;38.40;36.50;;;;;;5023341;28;20108;-69
2022/08/12 13:13:10;;;;;;;4.35;2.22;;;38.20;37.10;;;;;;4992909;28;20485;-69
2022/08/12 13:15:36;;;;;;;3.50;2.60;;;38.60;37.50;;;;;;4992902;28;20041;-70
2022/08/12 13:18:06;;;;;;;4.70;2.70;;;38.90;37.20;;;;;;5004924;28;20045;-68
2022/08/12 13:20:32;;;;;;;4.18;2.60;;;38.60;36.30;;;;;;4977849;28;20050;-69
2022/08/12 13:22:58;;;;;;;3.05;2.40;;;39.00;36.90;;;;;;4990350;28;20774;-70
2022/08/12 13:25:25;;;;;;;5.22;2.50;;;39.10;36.00;;;;;;4992764;28;20053;-69
2022/08/12 13:27:50;;;;;;;4.50;2.50;;;39.20;37.00;;;;;;4999193;28;20056;-69
2022/08/12 13:30:22;;;;;;;5.22;2.22;;;39.20;36.00;;;;;;4993034;28;20141;-69
2022/08/12 13:32:52;;;;;;;2.50;2.13;;;39.80;35.80;;;;;;4975912;28;20054;-69
2022/08/12 13:35:18;;;;;;;4.47;2.20;;;40.10;35.20;;;;;;4994277;28;20412;-69
2022/08/12 13:37:52;;;;;;;2.78;2.30;;;40.20;35.00;;;;;;4995864;28;20525;-70
2022/08/12 13:40:45;;;;;;;2.72;2.50;;;40.30;34.40;;;;;;4992912;28;20137;-69
2022/08/12 13:43:16;;;;;;;3.47;2.35;;;40.50;32.70;;;;;;4972864;28;20444;-70
2022/08/12 13:45:42;;;;;;;3.50;2.40;;;40.70;34.30;;;;;;5008116;28;20057;-70
2022/08/12 13:48:08;;;;;;;3.13;2.53;;;40.80;33.80;;;;;;4984911;28;20046;-69
2022/08/12 13:50:37;;;;;;;4.40;2.88;;;40.70;34.00;;;;;;4985004;28;20084;-69
2022/08/12 13:53:08;;;;;;;3.97;2.50;;;41.20;33.80;;;;;;4992883;28;20443;-69
2022/08/12 13:55:35;;;;;;;4.32;2.63;;;41.40;33.60;;;;;;4974142;28;20217;-69
2022/08/12 13:58:04;;;;;;;2.75;2.30;;;41.80;33.40;;;;;;4981504;28;20058;-70
2022/08/12 14:00:34;;;;;;;3.55;2.88;;;42.20;33.40;;;;;;4982567;28;20080;-71
2022/08/12 14:03:01;;;;;;;3.53;2.60;;;42.20;32.90;;;;;;4992342;28;20514;-69
2022/08/12 14:05:28;;;;;;;3.50;3.00;;;42.50;33.10;;;;;;4975527;28;20046;-71
2022/08/12 14:08:05;;;;;;;5.07;2.67;;;42.60;33.20;;;;;;4995718;28;20528;-69
2022/08/12 14:10:37;;;;;;;3.30;3.00;;;42.80;31.50;;;;;;4984463;28;20085;-69
2022/08/12 14:13:15;;;;;;;3.08;2.65;;;43.00;32.50;;;;;;4992225;28;20054;-69
2022/08/12 14:15:49;;;;;;;5.43;3.20;;;43.30;30.90;;;;;;4992142;28;20049;-69
2022/08/12 14:18:26;;;;;;;3.03;2.83;;;43.20;31.60;;;;;;4976432;28;20046;-70
2022/08/12 14:21:02;;;;;;;3.75;3.28;;;43.30;31.00;;;;;;5000980;28;20046;-69
2022/08/12 14:23:34;;;;;;;3.50;2.80;;;43.20;31.30;;;;;;4996782;28;20412;-70
2022/08/12 14:26:04;;;;;;;2.85;2.65;;;43.60;31.30;;;;;;4991670;28;20489;-70
2022/08/12 14:28:33;;;;;;;7.60;2.67;;;43.60;31.10;;;;;;4976127;28;20523;-69
2022/08/12 14:31:05;;;;;;;4.03;2.60;;;43.60;31.30;;;;;;4992336;28;20053;-69
2022/08/12 14:33:47;;;;;;;6.10;2.70;;;43.40;31.50;;;;;;4992062;28;20129;-70
2022/08/12 14:36:18;;;;;;;3.42;2.78;;;43.20;30.90;;;;;;4991166;28;20050;-70
2022/08/12 14:38:44;;;;;;;3.97;2.80;;;42.80;31.70;;;;;;4991197;28;20053;-69
2022/08/12 14:41:11;;;;;;;3.05;2.72;;;42.70;31.60;;;;;;4975386;28;20050;-70
2022/08/12 14:43:39;;;;;;;3.35;3.00;;;43.00;31.90;;;;;;5019843;28;20158;-70
2022/08/12 14:46:14;;;;;;;4.32;2.72;;;42.60;31.80;;;;;;4981616;28;20054;-69